Time,TemperatureF,DewpointF,PressureIn,WindDirection,WindDirectionDegrees,WindSpeedMPH,WindSpeedGustMPH,Humidity,HourlyPrecipIn,Conditions,Clouds,dailyrainin,SoftwareType,DateUTC
2013-06-06 00:04:00,70.4,69.0,29.96,NW,304,0.0,0.0,95,0.00,,,0.03,weatherlink.com 1.10,2013-06-06 04:04:00,
2013-06-06 00:19:00,70.6,69.0,29.96,NW,304,0.0,0.0,95,0.00,,,0.03,weatherlink.com 1.10,2013-06-06 04:19:00,
2013-06-06 00:34:00,70.8,69.0,29.95,NNE,30,0.0,2.0,95,0.00,,,0.03,weatherlink.com 1.10,2013-06-06 04:34:00,
2013-06-06 00:49:00,70.8,69.0,29.95,NNE,30,0.0,1.0,95,0.00,,,0.03,weatherlink.com 1.10,2013-06-06 04:49:00,
2013-06-06 01:04:00,70.8,69.0,29.95,NNE,30,0.0,0.0,95,0.00,,,0.03,weatherlink.com 1.10,2013-06-06 05:04:00,
2013-06-06 01:19:00,70.4,69.0,29.94,NNE,33,0.0,1.0,95,0.00,,,0.03,weatherlink.com 1.10,2013-06-06 05:19:00,
2013-06-06 01:34:00,70.4,69.0,29.93,NNE,33,0.0,0.0,95,0.00,,,0.03,weatherlink.com 1.10,2013-06-06 05:34:00,
2013-06-06 01:49:00,70.4,69.0,29.93,NNE,33,0.0,0.0,96,0.00,,,0.03,weatherlink.com 1.10,2013-06-06 05:49:00,
2013-06-06 02:04:00,70.4,69.0,29.93,ENE,61,0.0,1.0,96,0.00,,,0.03,weatherlink.com 1.10,2013-06-06 06:04:00,
2013-06-06 02:19:00,70.4,69.0,29.92,ENE,61,0.0,1.0,96,0.01,,,0.01,weatherlink.com 1.10,2013-06-06 06:19:00,
2013-06-06 02:34:00,70.4,69.0,29.92,South,174,0.0,0.0,96,0.03,,,0.03,weatherlink.com 1.10,2013-06-06 06:34:00,
2013-06-06 02:49:00,70.4,69.0,29.91,South,174,0.0,0.0,96,0.04,,,0.04,weatherlink.com 1.10,2013-06-06 06:49:00,
2013-06-06 03:04:00,70.4,70.0,29.91,South,174,0.0,0.0,97,0.04,,,0.04,weatherlink.com 1.10,2013-06-06 07:04:00,
2013-06-06 03:19:00,70.3,69.0,29.91,South,174,0.0,0.0,97,0.03,,,0.04,weatherlink.com 1.10,2013-06-06 07:19:00,
2013-06-06 03:34:00,70.1,69.0,29.90,South,184,0.0,2.0,97,0.01,,,0.04,weatherlink.com 1.10,2013-06-06 07:34:00,
2013-06-06 03:49:00,69.9,69.0,29.89,South,184,0.0,1.0,97,0.00,,,0.04,weatherlink.com 1.10,2013-06-06 07:49:00,
2013-06-06 04:04:00,69.8,69.0,29.89,South,169,0.0,0.0,97,0.00,,,0.04,weatherlink.com 1.10,2013-06-06 08:04:00,
2013-06-06 04:19:00,69.8,69.0,29.88,South,169,0.0,0.0,97,0.00,,,0.04,weatherlink.com 1.10,2013-06-06 08:19:00,
2013-06-06 04:34:00,69.6,69.0,29.88,South,169,0.0,0.0,97,0.00,,,0.04,weatherlink.com 1.10,2013-06-06 08:34:00,
2013-06-06 04:49:00,69.6,69.0,29.88,South,169,0.0,0.0,98,0.00,,,0.04,weatherlink.com 1.10,2013-06-06 08:49:00,
2013-06-06 05:04:00,69.4,69.0,29.88,South,169,0.0,0.0,98,0.00,,,0.04,weatherlink.com 1.10,2013-06-06 09:04:00,
2013-06-06 05:19:00,69.4,69.0,29.88,South,169,0.0,0.0,98,0.00,,,0.04,weatherlink.com 1.10,2013-06-06 09:19:00,
2013-06-06 05:34:00,69.6,69.0,29.87,South,169,0.0,0.0,98,0.00,,,0.04,weatherlink.com 1.10,2013-06-06 09:34:00,
2013-06-06 05:49:00,69.6,69.0,29.87,South,169,0.0,0.0,98,0.00,,,0.04,weatherlink.com 1.10,2013-06-06 09:49:00,
2013-06-06 06:04:00,69.6,69.0,29.87,West,265,0.0,0.0,98,0.00,,,0.04,weatherlink.com 1.10,2013-06-06 10:04:00,
2013-06-06 06:19:00,69.6,69.0,29.86,ESE,119,0.0,1.0,98,0.00,,,0.04,weatherlink.com 1.10,2013-06-06 10:19:00,
2013-06-06 06:34:00,69.6,69.0,29.87,ESE,119,0.0,1.0,98,0.00,,,0.04,weatherlink.com 1.10,2013-06-06 10:34:00,
2013-06-06 06:49:00,69.6,69.0,29.87,ESE,119,0.0,0.0,98,0.00,,,0.04,weatherlink.com 1.10,2013-06-06 10:49:00,
2013-06-06 07:04:00,69.6,69.0,29.87,ESE,119,0.0,1.0,98,0.00,,,0.04,weatherlink.com 1.10,2013-06-06 11:04:00,
2013-06-06 07:19:00,69.6,69.0,29.87,ESE,119,0.0,0.0,98,0.00,,,0.04,weatherlink.com 1.10,2013-06-06 11:19:00,
2013-06-06 07:34:00,69.6,69.0,29.86,ESE,119,0.0,1.0,98,0.01,,,0.05,weatherlink.com 1.10,2013-06-06 11:34:00,
2013-06-06 07:49:00,69.6,69.0,29.86,ESE,111,0.0,2.0,98,0.01,,,0.05,weatherlink.com 1.10,2013-06-06 11:49:00,
2013-06-06 08:04:00,69.8,69.0,29.86,SSE,150,0.0,2.0,98,0.01,,,0.05,weatherlink.com 1.10,2013-06-06 12:04:00,
2013-06-06 08:19:00,70.1,70.0,29.86,SSE,148,0.0,3.0,98,0.01,,,0.05,weatherlink.com 1.10,2013-06-06 12:19:00,
2013-06-06 08:34:00,70.3,70.0,29.86,SSE,148,0.0,1.0,98,0.00,,,0.05,weatherlink.com 1.10,2013-06-06 12:34:00,
2013-06-06 08:49:00,70.4,70.0,29.86,WSW,246,0.0,1.0,98,0.00,,,0.05,weatherlink.com 1.10,2013-06-06 12:49:00,
2013-06-06 09:04:00,70.6,70.0,29.86,ESE,123,0.0,2.0,97,0.00,,,0.05,weatherlink.com 1.10,2013-06-06 13:04:00,
2013-06-06 09:19:00,70.6,70.0,29.86,ESE,122,0.0,2.0,97,0.00,,,0.05,weatherlink.com 1.10,2013-06-06 13:19:00,
2013-06-06 09:34:00,70.9,70.0,29.86,SSE,155,0.0,2.0,97,0.00,,,0.05,weatherlink.com 1.10,2013-06-06 13:34:00,
2013-06-06 09:49:00,71.5,71.0,29.86,WNW,285,0.0,1.0,97,0.00,,,0.05,weatherlink.com 1.10,2013-06-06 13:49:00,
2013-06-06 10:04:00,71.8,71.0,29.86,SSE,155,0.0,2.0,96,0.00,,,0.05,weatherlink.com 1.10,2013-06-06 14:04:00,
2013-06-06 10:19:00,71.8,70.0,29.85,SSE,163,1.0,1.0,95,0.00,,,0.05,weatherlink.com 1.10,2013-06-06 14:19:00,
2013-06-06 10:34:00,72.0,71.0,29.85,South,169,0.0,4.0,95,0.01,,,0.06,weatherlink.com 1.10,2013-06-06 14:34:00,
2013-06-06 11:05:00,73.2,71.0,29.85,SSE,163,0.0,1.0,92,0.01,,,0.06,weatherlink.com 1.10,2013-06-06 15:05:00,
2013-06-06 11:20:00,73.2,71.0,29.85,South,186,0.0,3.0,92,0.01,,,0.06,weatherlink.com 1.10,2013-06-06 15:20:00,
2013-06-06 11:35:00,73.3,71.0,29.85,SE,136,0.0,1.0,92,0.00,,,0.06,weatherlink.com 1.10,2013-06-06 15:35:00,
2013-06-06 11:50:00,73.7,71.0,29.85,WNW,284,0.0,2.0,90,0.00,,,0.06,weatherlink.com 1.10,2013-06-06 15:50:00,
2013-06-06 12:05:00,74.0,70.0,29.85,South,184,0.0,4.0,88,0.00,,,0.06,weatherlink.com 1.10,2013-06-06 16:05:00,
2013-06-06 12:20:00,74.4,71.0,29.85,South,184,0.0,1.0,89,0.00,,,0.06,weatherlink.com 1.10,2013-06-06 16:20:00,
2013-06-06 12:35:00,75.1,71.0,29.84,South,184,0.0,1.0,88,0.00,,,0.06,weatherlink.com 1.10,2013-06-06 16:35:00,
2013-06-06 12:50:00,74.7,71.0,29.83,South,178,0.0,2.0,88,0.07,,,0.13,weatherlink.com 1.10,2013-06-06 16:50:00,
2013-06-06 13:05:00,72.8,70.0,29.84,South,178,0.0,1.0,92,0.13,,,0.19,weatherlink.com 1.10,2013-06-06 17:05:00,
2013-06-06 13:35:00,73.0,72.0,29.83,ESE,104,0.0,0.0,96,0.24,,,0.30,weatherlink.com 1.10,2013-06-06 17:35:00,
2013-06-06 13:50:00,74.4,74.0,29.82,ESE,104,0.0,1.0,97,0.16,,,0.30,weatherlink.com 1.10,2013-06-06 17:50:00,
2013-06-06 14:05:00,74.9,74.0,29.82,ESE,104,0.0,1.0,96,0.11,,,0.30,weatherlink.com 1.10,2013-06-06 18:05:00,
2013-06-06 14:20:00,75.3,74.0,29.81,ESE,115,0.0,1.0,95,0.00,,,0.30,weatherlink.com 1.10,2013-06-06 18:20:00,
2013-06-06 14:35:00,75.3,73.0,29.80,SE,142,0.0,2.0,92,0.00,,,0.30,weatherlink.com 1.10,2013-06-06 18:35:00,
2013-06-06 14:50:00,75.1,73.0,29.80,South,176,1.0,5.0,92,0.00,,,0.30,weatherlink.com 1.10,2013-06-06 18:50:00,
2013-06-06 15:05:00,75.3,72.0,29.80,South,175,1.0,5.0,89,0.00,,,0.30,weatherlink.com 1.10,2013-06-06 19:05:00,
2013-06-06 15:20:00,75.3,72.0,29.80,SE,135,1.0,4.0,89,0.00,,,0.30,weatherlink.com 1.10,2013-06-06 19:20:00,
2013-06-06 15:35:00,75.3,72.0,29.80,SSE,149,0.0,2.0,90,0.00,,,0.30,weatherlink.com 1.10,2013-06-06 19:35:00,
2013-06-06 15:50:00,72.8,70.0,29.80,SE,137,0.0,4.0,90,0.33,,,0.63,weatherlink.com 1.10,2013-06-06 19:50:00,
2013-06-06 16:05:00,70.9,69.0,29.81,SE,133,0.0,3.0,94,0.38,,,0.68,weatherlink.com 1.10,2013-06-06 20:05:00,
2013-06-06 16:20:00,71.1,70.0,29.81,East,94,0.0,1.0,96,0.38,,,0.68,weatherlink.com 1.10,2013-06-06 20:20:00,
2013-06-06 16:35:00,71.5,71.0,29.81,SE,140,0.0,2.0,97,0.38,,,0.68,weatherlink.com 1.10,2013-06-06 20:35:00,
2013-06-06 16:50:00,71.8,71.0,29.80,SE,140,0.0,1.0,97,0.05,,,0.68,weatherlink.com 1.10,2013-06-06 20:50:00,
2013-06-06 17:05:00,72.0,71.0,29.80,SE,140,0.0,1.0,97,0.00,,,0.68,weatherlink.com 1.10,2013-06-06 21:05:00,
2013-06-06 17:20:00,72.3,72.0,29.80,SE,140,0.0,1.0,98,0.00,,,0.68,weatherlink.com 1.10,2013-06-06 21:20:00,
2013-06-06 17:35:00,72.0,71.0,29.80,East,96,0.0,0.0,97,0.00,,,0.68,weatherlink.com 1.10,2013-06-06 21:35:00,
2013-06-06 17:50:00,72.0,71.0,29.79,East,96,0.0,0.0,97,0.00,,,0.68,weatherlink.com 1.10,2013-06-06 21:50:00,
2013-06-06 18:05:00,72.3,71.0,29.79,East,96,0.0,0.0,97,0.00,,,0.68,weatherlink.com 1.10,2013-06-06 22:05:00,
2013-06-06 18:20:00,72.3,71.0,29.79,SSE,167,0.0,3.0,97,0.00,,,0.68,weatherlink.com 1.10,2013-06-06 22:20:00,
2013-06-06 18:35:00,72.3,71.0,29.78,SSE,167,0.0,0.0,97,0.00,,,0.68,weatherlink.com 1.10,2013-06-06 22:35:00,
2013-06-06 18:50:00,72.3,71.0,29.78,SSE,167,0.0,0.0,97,0.00,,,0.68,weatherlink.com 1.10,2013-06-06 22:50:00,
2013-06-06 19:05:00,72.3,71.0,29.79,SSE,167,0.0,0.0,97,0.00,,,0.68,weatherlink.com 1.10,2013-06-06 23:05:00,
2013-06-06 19:20:00,72.1,71.0,29.79,SSE,167,0.0,0.0,97,0.00,,,0.68,weatherlink.com 1.10,2013-06-06 23:20:00,
2013-06-06 19:35:00,72.0,71.0,29.79,SSE,167,0.0,0.0,97,0.00,,,0.68,weatherlink.com 1.10,2013-06-06 23:35:00,
2013-06-06 19:50:00,72.0,71.0,29.79,SSE,167,0.0,0.0,97,0.00,,,0.68,weatherlink.com 1.10,2013-06-06 23:50:00,
2013-06-06 20:05:00,71.1,70.0,29.79,SSW,196,0.0,4.0,96,0.02,,,0.70,weatherlink.com 1.10,2013-06-07 00:05:00,
2013-06-06 20:20:00,69.8,69.0,29.80,SSE,166,0.0,6.0,96,0.12,,,0.80,weatherlink.com 1.10,2013-06-07 00:20:00,
2013-06-06 20:35:00,69.4,68.0,29.80,SSE,166,0.0,1.0,96,0.16,,,0.84,weatherlink.com 1.10,2013-06-07 00:35:00,
2013-06-06 20:50:00,69.3,69.0,29.80,SSE,166,0.0,0.0,97,0.17,,,0.85,weatherlink.com 1.10,2013-06-07 00:50:00,
2013-06-06 21:05:00,69.1,68.0,29.80,SSE,166,0.0,0.0,97,0.15,,,0.85,weatherlink.com 1.10,2013-06-07 01:05:00,
2013-06-06 21:20:00,68.9,68.0,29.80,SSE,166,0.0,0.0,98,0.04,,,0.85,weatherlink.com 1.10,2013-06-07 01:20:00,
2013-06-06 21:35:00,68.9,68.0,29.80,SSE,166,0.0,0.0,98,0.02,,,0.86,weatherlink.com 1.10,2013-06-07 01:35:00,
2013-06-06 21:50:00,68.8,68.0,29.80,SSE,166,0.0,0.0,98,0.01,,,0.86,weatherlink.com 1.10,2013-06-07 01:50:00,
2013-06-06 22:05:00,68.8,68.0,29.80,SSE,166,0.0,0.0,98,0.01,,,0.86,weatherlink.com 1.10,2013-06-07 02:05:00,
2013-06-06 22:20:00,68.6,68.0,29.80,SSE,166,0.0,0.0,98,0.01,,,0.86,weatherlink.com 1.10,2013-06-07 02:20:00,
2013-06-06 22:35:00,68.3,68.0,29.80,SSE,166,0.0,1.0,98,0.00,,,0.86,weatherlink.com 1.10,2013-06-07 02:35:00,
2013-06-06 22:50:00,68.3,68.0,29.80,SSE,166,0.0,0.0,98,0.00,,,0.86,weatherlink.com 1.10,2013-06-07 02:50:00,
2013-06-06 23:05:00,68.3,68.0,29.80,SSE,166,0.0,0.0,98,0.00,,,0.86,weatherlink.com 1.10,2013-06-07 03:05:00,
2013-06-06 23:20:00,68.3,68.0,29.80,SSE,166,0.0,0.0,99,0.01,,,0.87,weatherlink.com 1.10,2013-06-07 03:20:00,
2013-06-06 23:35:00,68.3,68.0,29.80,SSE,166,0.0,0.0,99,0.02,,,0.88,weatherlink.com 1.10,2013-06-07 03:35:00,
2013-06-06 23:50:00,68.1,68.0,29.79,SSE,166,0.0,0.0,99,0.02,,,0.88,weatherlink.com 1.10,2013-06-07 03:50:00,